Terminal Aerodrome Forecast
Issued by NWS Green Bay, WI

Home | Current Version | Previous Version | Text Only | Print | Product List | Glossary On
Versions: 1 2 3 4 5 6 7 8 9 10 11 12 13 14 15 16 17 18 19 20
000
FTUS43 KGRB 240755 AAB
TAFGRB
TAF AMD
KGRB 240755Z 2408/2506 30004KT P6SM BKN025
      TEMPO 2410/2412 4SM BR SCT025
     FM241200 VRB03KT 5SM BR FEW010
     FM241400 VRB03KT P6SM SCT150
     FM242200 08012G20KT P6SM VCSH BKN080
     FM250200 08013G23KT 6SM -RA BR SCT010 OVC050
     FM250400 10014G27KT 2SM -RA BR OVC003 WS015/14035KT=

USA.gov is the U.S. government's official web portal to all federal, state and local government web resources and services.